sensor_id;sensor_type;location;lat;lon;timestamp;P1;durP1;ratioP1;P2;durP2;ratioP2
65853;SDS011;52627;48.838;2.402;2022-10-16T00:01:43;4.00;;;2.10;;
65853;SDS011;52627;48.838;2.402;2022-10-16T00:04:10;5.60;;;2.00;;
65853;SDS011;52627;48.838;2.402;2022-10-16T00:06:38;3.40;;;1.80;;
65853;SDS011;52627;48.838;2.402;2022-10-16T00:09:06;4.00;;;1.80;;
65853;SDS011;52627;48.838;2.402;2022-10-16T00:11:35;8.50;;;2.00;;
65853;SDS011;52627;48.838;2.402;2022-10-16T00:14:09;3.80;;;1.90;;
65853;SDS011;52627;48.838;2.402;2022-10-16T00:16:38;4.10;;;2.00;;
65853;SDS011;52627;48.838;2.402;2022-10-16T00:19:06;4.40;;;2.10;;
65853;SDS011;52627;48.838;2.402;2022-10-16T00:21:34;4.60;;;2.00;;
65853;SDS011;52627;48.838;2.402;2022-10-16T00:24:06;5.80;;;2.10;;
65853;SDS011;52627;48.838;2.402;2022-10-16T00:26:36;4.00;;;1.90;;
65853;SDS011;52627;48.838;2.402;2022-10-16T00:29:06;4.60;;;1.90;;
65853;SDS011;52627;48.838;2.402;2022-10-16T00:31:34;7.40;;;2.60;;
65853;SDS011;52627;48.838;2.402;2022-10-16T00:34:02;5.50;;;2.20;;
65853;SDS011;52627;48.838;2.402;2022-10-16T00:36:29;3.80;;;2.30;;
65853;SDS011;52627;48.838;2.402;2022-10-16T00:38:57;4.30;;;2.10;;
65853;SDS011;52627;48.838;2.402;2022-10-16T00:41:33;5.30;;;2.20;;
65853;SDS011;52627;48.838;2.402;2022-10-16T00:44:04;4.60;;;1.90;;
65853;SDS011;52627;48.838;2.402;2022-10-16T00:47:10;4.40;;;2.20;;
65853;SDS011;52627;48.838;2.402;2022-10-16T00:49:40;4.00;;;2.00;;
65853;SDS011;52627;48.838;2.402;2022-10-16T00:52:07;6.00;;;2.70;;
65853;SDS011;52627;48.838;2.402;2022-10-16T00:54:35;3.40;;;2.00;;
65853;SDS011;52627;48.838;2.402;2022-10-16T00:57:05;3.40;;;2.00;;
65853;SDS011;52627;48.838;2.402;2022-10-16T00:59:36;4.20;;;2.10;;
65853;SDS011;52627;48.838;2.402;2022-10-16T01:02:06;3.70;;;1.80;;
65853;SDS011;52627;48.838;2.402;2022-10-16T01:16:02;4.00;;;1.80;;
65853;SDS011;52627;48.838;2.402;2022-10-16T01:18:43;4.00;;;1.50;;
65853;SDS011;52627;48.838;2.402;2022-10-16T01:27:04;3.10;;;1.40;;
65853;SDS011;52627;48.838;2.402;2022-10-16T01:29:42;4.40;;;1.40;;
65853;SDS011;52627;48.838;2.402;2022-10-16T01:32:29;2.90;;;1.30;;
65853;SDS011;52627;48.838;2.402;2022-10-16T01:35:04;4.50;;;1.40;;
65853;SDS011;52627;48.838;2.402;2022-10-16T01:38:04;4.60;;;1.60;;
65853;SDS011;52627;48.838;2.402;2022-10-16T01:40:36;3.10;;;1.60;;
65853;SDS011;52627;48.838;2.402;2022-10-16T01:43:10;3.80;;;1.70;;
65853;SDS011;52627;48.838;2.402;2022-10-16T01:45:40;2.70;;;1.40;;
65853;SDS011;52627;48.838;2.402;2022-10-16T01:48:12;3.70;;;1.80;;
65853;SDS011;52627;48.838;2.402;2022-10-16T01:50:43;5.20;;;2.00;;
65853;SDS011;52627;48.838;2.402;2022-10-16T01:53:13;4.40;;;1.60;;
65853;SDS011;52627;48.838;2.402;2022-10-16T01:55:44;4.70;;;1.50;;
65853;SDS011;52627;48.838;2.402;2022-10-16T01:58:13;4.10;;;1.60;;
65853;SDS011;52627;48.838;2.402;2022-10-16T02:00:43;3.40;;;1.80;;
65853;SDS011;52627;48.838;2.402;2022-10-16T02:03:14;3.20;;;1.50;;
65853;SDS011;52627;48.838;2.402;2022-10-16T02:05:50;3.80;;;1.50;;
65853;SDS011;52627;48.838;2.402;2022-10-16T02:08:21;4.10;;;1.30;;
65853;SDS011;52627;48.838;2.402;2022-10-16T02:10:50;3.00;;;1.10;;
65853;SDS011;52627;48.838;2.402;2022-10-16T02:13:23;4.30;;;1.30;;
65853;SDS011;52627;48.838;2.402;2022-10-16T02:15:53;2.30;;;1.10;;
65853;SDS011;52627;48.838;2.402;2022-10-16T02:18:21;3.30;;;1.00;;
65853;SDS011;52627;48.838;2.402;2022-10-16T02:20:53;3.10;;;1.10;;
65853;SDS011;52627;48.838;2.402;2022-10-16T02:23:34;2.10;;;1.00;;
65853;SDS011;52627;48.838;2.402;2022-10-16T02:26:07;2.50;;;1.10;;
65853;SDS011;52627;48.838;2.402;2022-10-16T02:28:42;2.90;;;1.00;;
65853;SDS011;52627;48.838;2.402;2022-10-16T02:31:18;3.10;;;1.00;;
65853;SDS011;52627;48.838;2.402;2022-10-16T02:33:51;4.10;;;1.10;;
65853;SDS011;52627;48.838;2.402;2022-10-16T02:36:20;2.40;;;1.00;;
65853;SDS011;52627;48.838;2.402;2022-10-16T02:38:48;2.80;;;1.10;;
65853;SDS011;52627;48.838;2.402;2022-10-16T02:41:15;2.70;;;0.90;;
65853;SDS011;52627;48.838;2.402;2022-10-16T02:43:43;3.00;;;1.10;;
65853;SDS011;52627;48.838;2.402;2022-10-16T02:46:10;2.50;;;1.00;;
65853;SDS011;52627;48.838;2.402;2022-10-16T02:48:37;3.80;;;1.10;;
65853;SDS011;52627;48.838;2.402;2022-10-16T02:51:06;3.10;;;1.10;;
65853;SDS011;52627;48.838;2.402;2022-10-16T02:53:33;4.00;;;1.50;;
65853;SDS011;52627;48.838;2.402;2022-10-16T02:56:01;3.40;;;1.10;;
65853;SDS011;52627;48.838;2.402;2022-10-16T02:58:28;2.20;;;1.00;;
65853;SDS011;52627;48.838;2.402;2022-10-16T03:00:55;2.20;;;1.10;;
65853;SDS011;52627;48.838;2.402;2022-10-16T03:03:23;3.30;;;1.50;;
65853;SDS011;52627;48.838;2.402;2022-10-16T03:05:50;2.30;;;1.00;;
65853;SDS011;52627;48.838;2.402;2022-10-16T03:08:17;3.40;;;1.00;;
65853;SDS011;52627;48.838;2.402;2022-10-16T03:10:51;2.80;;;0.90;;
65853;SDS011;52627;48.838;2.402;2022-10-16T03:13:18;2.30;;;0.90;;
65853;SDS011;52627;48.838;2.402;2022-10-16T03:15:47;2.90;;;1.00;;
65853;SDS011;52627;48.838;2.402;2022-10-16T03:18:15;3.20;;;1.00;;
65853;SDS011;52627;48.838;2.402;2022-10-16T03:20:43;3.40;;;1.00;;
65853;SDS011;52627;48.838;2.402;2022-10-16T03:23:10;2.50;;;0.70;;
65853;SDS011;52627;48.838;2.402;2022-10-16T03:25:38;3.60;;;0.90;;
65853;SDS011;52627;48.838;2.402;2022-10-16T03:28:05;3.80;;;1.00;;
65853;SDS011;52627;48.838;2.402;2022-10-16T03:30:33;3.10;;;1.20;;
65853;SDS011;52627;48.838;2.402;2022-10-16T03:33:00;2.40;;;1.00;;
65853;SDS011;52627;48.838;2.402;2022-10-16T03:35:27;3.30;;;0.90;;
65853;SDS011;52627;48.838;2.402;2022-10-16T03:37:55;3.20;;;0.80;;
65853;SDS011;52627;48.838;2.402;2022-10-16T03:40:23;2.50;;;0.80;;
65853;SDS011;52627;48.838;2.402;2022-10-16T03:42:51;1.90;;;0.80;;
65853;SDS011;52627;48.838;2.402;2022-10-16T03:45:18;3.90;;;0.80;;
65853;SDS011;52627;48.838;2.402;2022-10-16T03:47:45;3.10;;;0.80;;
65853;SDS011;52627;48.838;2.402;2022-10-16T03:50:13;1.70;;;0.70;;
65853;SDS011;52627;48.838;2.402;2022-10-16T03:52:40;3.30;;;0.70;;
65853;SDS011;52627;48.838;2.402;2022-10-16T03:55:09;2.20;;;0.70;;
65853;SDS011;52627;48.838;2.402;2022-10-16T03:57:36;2.00;;;0.70;;
65853;SDS011;52627;48.838;2.402;2022-10-16T04:00:04;2.90;;;0.80;;
65853;SDS011;52627;48.838;2.402;2022-10-16T04:02:32;3.20;;;0.70;;
65853;SDS011;52627;48.838;2.402;2022-10-16T04:04:59;3.10;;;0.90;;
65853;SDS011;52627;48.838;2.402;2022-10-16T04:07:27;1.50;;;0.80;;
65853;SDS011;52627;48.838;2.402;2022-10-16T04:09:54;2.60;;;0.80;;
65853;SDS011;52627;48.838;2.402;2022-10-16T04:12:22;2.10;;;0.90;;
65853;SDS011;52627;48.838;2.402;2022-10-16T04:14:50;1.90;;;0.70;;
65853;SDS011;52627;48.838;2.402;2022-10-16T04:17:17;2.90;;;0.90;;
65853;SDS011;52627;48.838;2.402;2022-10-16T04:19:44;4.00;;;0.90;;
65853;SDS011;52627;48.838;2.402;2022-10-16T04:22:12;2.40;;;0.80;;
65853;SDS011;52627;48.838;2.402;2022-10-16T04:24:39;3.20;;;1.10;;
65853;SDS011;52627;48.838;2.402;2022-10-16T04:27:07;3.80;;;0.90;;
65853;SDS011;52627;48.838;2.402;2022-10-16T04:29:34;2.90;;;1.00;;
65853;SDS011;52627;48.838;2.402;2022-10-16T04:32:01;2.60;;;1.10;;
65853;SDS011;52627;48.838;2.402;2022-10-16T04:34:29;2.70;;;0.90;;
65853;SDS011;52627;48.838;2.402;2022-10-16T04:36:56;3.30;;;1.20;;
65853;SDS011;52627;48.838;2.402;2022-10-16T04:39:24;2.50;;;1.00;;
65853;SDS011;52627;48.838;2.402;2022-10-16T04:41:51;3.50;;;1.20;;
65853;SDS011;52627;48.838;2.402;2022-10-16T04:44:18;3.80;;;1.10;;
65853;SDS011;52627;48.838;2.402;2022-10-16T04:46:46;2.20;;;0.80;;
65853;SDS011;52627;48.838;2.402;2022-10-16T04:49:13;2.40;;;1.00;;
65853;SDS011;52627;48.838;2.402;2022-10-16T04:51:40;2.00;;;0.90;;
65853;SDS011;52627;48.838;2.402;2022-10-16T04:54:09;1.50;;;0.70;;
65853;SDS011;52627;48.838;2.402;2022-10-16T04:56:36;3.10;;;0.70;;
65853;SDS011;52627;48.838;2.402;2022-10-16T04:59:10;3.10;;;0.90;;
65853;SDS011;52627;48.838;2.402;2022-10-16T05:01:37;3.00;;;0.80;;
65853;SDS011;52627;48.838;2.402;2022-10-16T05:04:04;2.20;;;0.90;;
65853;SDS011;52627;48.838;2.402;2022-10-16T05:06:32;2.30;;;0.80;;
65853;SDS011;52627;48.838;2.402;2022-10-16T05:08:59;2.30;;;1.00;;
65853;SDS011;52627;48.838;2.402;2022-10-16T05:11:27;3.60;;;0.90;;
65853;SDS011;52627;48.838;2.402;2022-10-16T05:13:54;1.60;;;0.70;;
65853;SDS011;52627;48.838;2.402;2022-10-16T05:16:22;2.90;;;1.00;;
65853;SDS011;52627;48.838;2.402;2022-10-16T05:18:51;2.90;;;1.00;;
65853;SDS011;52627;48.838;2.402;2022-10-16T05:21:30;4.70;;;1.10;;
65853;SDS011;52627;48.838;2.402;2022-10-16T05:23:57;2.20;;;0.80;;
65853;SDS011;52627;48.838;2.402;2022-10-16T05:26:25;3.30;;;1.10;;
65853;SDS011;52627;48.838;2.402;2022-10-16T05:28:52;3.20;;;1.10;;
65853;SDS011;52627;48.838;2.402;2022-10-16T05:31:19;2.40;;;1.10;;
65853;SDS011;52627;48.838;2.402;2022-10-16T05:33:47;2.70;;;0.90;;
65853;SDS011;52627;48.838;2.402;2022-10-16T05:36:20;2.80;;;1.20;;
65853;SDS011;52627;48.838;2.402;2022-10-16T05:38:50;2.60;;;0.90;;
65853;SDS011;52627;48.838;2.402;2022-10-16T05:41:18;2.70;;;1.20;;
65853;SDS011;52627;48.838;2.402;2022-10-16T05:43:48;5.20;;;1.40;;
65853;SDS011;52627;48.838;2.402;2022-10-16T05:46:16;3.10;;;1.30;;
65853;SDS011;52627;48.838;2.402;2022-10-16T05:48:44;2.40;;;1.20;;
65853;SDS011;52627;48.838;2.402;2022-10-16T05:51:13;4.50;;;1.50;;
65853;SDS011;52627;48.838;2.402;2022-10-16T05:53:41;5.30;;;1.90;;
65853;SDS011;52627;48.838;2.402;2022-10-16T05:56:14;4.60;;;2.40;;
65853;SDS011;52627;48.838;2.402;2022-10-16T05:58:41;3.60;;;1.50;;
65853;SDS011;52627;48.838;2.402;2022-10-16T06:01:12;3.90;;;1.90;;
65853;SDS011;52627;48.838;2.402;2022-10-16T06:03:41;3.80;;;1.80;;
65853;SDS011;52627;48.838;2.402;2022-10-16T06:06:13;3.20;;;1.60;;
65853;SDS011;52627;48.838;2.402;2022-10-16T06:08:43;4.10;;;1.60;;
65853;SDS011;52627;48.838;2.402;2022-10-16T06:11:26;4.30;;;1.40;;
65853;SDS011;52627;48.838;2.402;2022-10-16T06:13:57;4.00;;;1.80;;
65853;SDS011;52627;48.838;2.402;2022-10-16T06:16:26;3.40;;;1.70;;
65853;SDS011;52627;48.838;2.402;2022-10-16T06:18:55;5.00;;;1.70;;
65853;SDS011;52627;48.838;2.402;2022-10-16T06:21:28;5.00;;;1.80;;
65853;SDS011;52627;48.838;2.402;2022-10-16T06:23:56;5.00;;;1.70;;
65853;SDS011;52627;48.838;2.402;2022-10-16T06:26:26;5.90;;;2.30;;
65853;SDS011;52627;48.838;2.402;2022-10-16T06:28:56;4.00;;;1.90;;
65853;SDS011;52627;48.838;2.402;2022-10-16T06:31:24;4.50;;;1.90;;
65853;SDS011;52627;48.838;2.402;2022-10-16T06:33:54;3.80;;;1.80;;
65853;SDS011;52627;48.838;2.402;2022-10-16T06:36:23;3.90;;;1.40;;
65853;SDS011;52627;48.838;2.402;2022-10-16T06:38:52;4.50;;;1.90;;
65853;SDS011;52627;48.838;2.402;2022-10-16T06:41:21;3.30;;;1.60;;
65853;SDS011;52627;48.838;2.402;2022-10-16T06:43:50;2.80;;;1.50;;
65853;SDS011;52627;48.838;2.402;2022-10-16T06:46:20;4.20;;;1.60;;
65853;SDS011;52627;48.838;2.402;2022-10-16T06:48:49;4.10;;;1.60;;
65853;SDS011;52627;48.838;2.402;2022-10-16T06:51:21;3.10;;;1.60;;
65853;SDS011;52627;48.838;2.402;2022-10-16T06:53:52;3.40;;;1.70;;
65853;SDS011;52627;48.838;2.402;2022-10-16T06:56:32;4.00;;;2.20;;
65853;SDS011;52627;48.838;2.402;2022-10-16T06:59:00;4.40;;;1.80;;
65853;SDS011;52627;48.838;2.402;2022-10-16T07:01:29;5.40;;;2.10;;
65853;SDS011;52627;48.838;2.402;2022-10-16T07:03:56;4.30;;;2.00;;
65853;SDS011;52627;48.838;2.402;2022-10-16T07:06:25;5.10;;;2.20;;
65853;SDS011;52627;48.838;2.402;2022-10-16T07:08:53;4.90;;;2.40;;
65853;SDS011;52627;48.838;2.402;2022-10-16T07:11:22;6.10;;;2.90;;
65853;SDS011;52627;48.838;2.402;2022-10-16T07:13:51;5.10;;;2.80;;
65853;SDS011;52627;48.838;2.402;2022-10-16T07:16:25;5.90;;;2.70;;
65853;SDS011;52627;48.838;2.402;2022-10-16T07:18:59;5.30;;;3.10;;
65853;SDS011;52627;48.838;2.402;2022-10-16T07:21:29;6.30;;;3.00;;
65853;SDS011;52627;48.838;2.402;2022-10-16T07:24:05;5.50;;;3.00;;
65853;SDS011;52627;48.838;2.402;2022-10-16T07:26:35;6.30;;;3.00;;
65853;SDS011;52627;48.838;2.402;2022-10-16T07:29:03;5.20;;;3.10;;
65853;SDS011;52627;48.838;2.402;2022-10-16T07:31:31;6.00;;;3.20;;
65853;SDS011;52627;48.838;2.402;2022-10-16T07:33:59;5.30;;;3.40;;
65853;SDS011;52627;48.838;2.402;2022-10-16T07:36:27;5.80;;;3.00;;
65853;SDS011;52627;48.838;2.402;2022-10-16T07:38:55;5.70;;;3.30;;
65853;SDS011;52627;48.838;2.402;2022-10-16T07:43:54;7.60;;;4.00;;
65853;SDS011;52627;48.838;2.402;2022-10-16T07:46:23;5.60;;;3.40;;
65853;SDS011;52627;48.838;2.402;2022-10-16T07:48:51;6.40;;;4.60;;
65853;SDS011;52627;48.838;2.402;2022-10-16T07:51:21;7.00;;;3.50;;
65853;SDS011;52627;48.838;2.402;2022-10-16T07:53:49;6.80;;;3.40;;
65853;SDS011;52627;48.838;2.402;2022-10-16T07:56:19;5.00;;;3.00;;
65853;SDS011;52627;48.838;2.402;2022-10-16T07:58:46;5.20;;;3.60;;
65853;SDS011;52627;48.838;2.402;2022-10-16T08:01:17;5.80;;;3.20;;
65853;SDS011;52627;48.838;2.402;2022-10-16T08:03:47;5.30;;;3.30;;
65853;SDS011;52627;48.838;2.402;2022-10-16T08:06:16;4.50;;;2.30;;
65853;SDS011;52627;48.838;2.402;2022-10-16T08:08:51;4.30;;;2.40;;
65853;SDS011;52627;48.838;2.402;2022-10-16T08:11:18;4.30;;;2.30;;
65853;SDS011;52627;48.838;2.402;2022-10-16T08:13:46;5.20;;;2.70;;
65853;SDS011;52627;48.838;2.402;2022-10-16T08:16:13;4.90;;;2.50;;
65853;SDS011;52627;48.838;2.402;2022-10-16T08:18:41;5.50;;;2.90;;
65853;SDS011;52627;48.838;2.402;2022-10-16T08:21:14;6.10;;;3.00;;
65853;SDS011;52627;48.838;2.402;2022-10-16T08:23:48;4.50;;;2.70;;
65853;SDS011;52627;48.838;2.402;2022-10-16T08:26:25;5.80;;;3.80;;
65853;SDS011;52627;48.838;2.402;2022-10-16T08:28:54;5.20;;;2.80;;
65853;SDS011;52627;48.838;2.402;2022-10-16T08:31:23;6.90;;;3.00;;
65853;SDS011;52627;48.838;2.402;2022-10-16T08:33:50;3.90;;;2.20;;
65853;SDS011;52627;48.838;2.402;2022-10-16T08:36:19;3.70;;;1.90;;
65853;SDS011;52627;48.838;2.402;2022-10-16T08:38:50;4.30;;;2.00;;
65853;SDS011;52627;48.838;2.402;2022-10-16T08:41:27;3.90;;;2.10;;
65853;SDS011;52627;48.838;2.402;2022-10-16T08:50:49;3.40;;;2.10;;
65853;SDS011;52627;48.838;2.402;2022-10-16T08:53:22;6.80;;;2.80;;
65853;SDS011;52627;48.838;2.402;2022-10-16T08:55:53;4.10;;;2.40;;
65853;SDS011;52627;48.838;2.402;2022-10-16T08:58:26;5.80;;;2.60;;
65853;SDS011;52627;48.838;2.402;2022-10-16T09:00:58;3.90;;;2.60;;
65853;SDS011;52627;48.838;2.402;2022-10-16T09:10:03;4.30;;;2.40;;
65853;SDS011;52627;48.838;2.402;2022-10-16T09:12:19;3.70;;;2.40;;
65853;SDS011;52627;48.838;2.402;2022-10-16T09:21:08;3.60;;;2.30;;
65853;SDS011;52627;48.838;2.402;2022-10-16T09:23:45;4.10;;;3.00;;
65853;SDS011;52627;48.838;2.402;2022-10-16T09:26:15;3.50;;;2.00;;
65853;SDS011;52627;48.838;2.402;2022-10-16T09:28:43;3.70;;;2.00;;
65853;SDS011;52627;48.838;2.402;2022-10-16T09:31:19;3.30;;;2.00;;
65853;SDS011;52627;48.838;2.402;2022-10-16T09:33:52;3.00;;;1.90;;
65853;SDS011;52627;48.838;2.402;2022-10-16T09:36:23;3.20;;;1.70;;
65853;SDS011;52627;48.838;2.402;2022-10-16T09:39:07;3.10;;;1.80;;
65853;SDS011;52627;48.838;2.402;2022-10-16T09:41:38;5.20;;;2.10;;
65853;SDS011;52627;48.838;2.402;2022-10-16T09:44:40;4.30;;;2.00;;
65853;SDS011;52627;48.838;2.402;2022-10-16T09:47:15;3.50;;;1.70;;
65853;SDS011;52627;48.838;2.402;2022-10-16T09:49:52;4.10;;;1.90;;
65853;SDS011;52627;48.838;2.402;2022-10-16T09:52:22;2.90;;;1.70;;
65853;SDS011;52627;48.838;2.402;2022-10-16T09:54:55;4.50;;;2.00;;
65853;SDS011;52627;48.838;2.402;2022-10-16T09:57:24;5.40;;;2.10;;
65853;SDS011;52627;48.838;2.402;2022-10-16T09:59:54;4.10;;;1.70;;
65853;SDS011;52627;48.838;2.402;2022-10-16T10:02:35;4.30;;;2.40;;
65853;SDS011;52627;48.838;2.402;2022-10-16T10:05:06;5.10;;;2.50;;
65853;SDS011;52627;48.838;2.402;2022-10-16T10:07:45;3.50;;;1.80;;
65853;SDS011;52627;48.838;2.402;2022-10-16T10:10:25;3.90;;;2.20;;
65853;SDS011;52627;48.838;2.402;2022-10-16T10:12:57;4.90;;;3.00;;
65853;SDS011;52627;48.838;2.402;2022-10-16T10:15:33;4.50;;;2.00;;
65853;SDS011;52627;48.838;2.402;2022-10-16T10:18:01;4.20;;;2.20;;
65853;SDS011;52627;48.838;2.402;2022-10-16T10:20:34;3.50;;;2.00;;
65853;SDS011;52627;48.838;2.402;2022-10-16T10:23:23;4.40;;;2.00;;
65853;SDS011;52627;48.838;2.402;2022-10-16T10:26:16;3.40;;;1.80;;
65853;SDS011;52627;48.838;2.402;2022-10-16T10:29:30;3.00;;;1.50;;
65853;SDS011;52627;48.838;2.402;2022-10-16T10:32:32;3.60;;;1.70;;
65853;SDS011;52627;48.838;2.402;2022-10-16T10:38:31;4.40;;;1.30;;
65853;SDS011;52627;48.838;2.402;2022-10-16T10:41:30;2.40;;;1.00;;
65853;SDS011;52627;48.838;2.402;2022-10-16T10:47:32;3.40;;;1.50;;
65853;SDS011;52627;48.838;2.402;2022-10-16T10:50:45;3.00;;;0.90;;
65853;SDS011;52627;48.838;2.402;2022-10-16T10:53:41;2.90;;;1.10;;
65853;SDS011;52627;48.838;2.402;2022-10-16T10:57:07;3.00;;;1.10;;
65853;SDS011;52627;48.838;2.402;2022-10-16T11:02:41;2.80;;;1.10;;
65853;SDS011;52627;48.838;2.402;2022-10-16T11:11:35;3.20;;;1.20;;
65853;SDS011;52627;48.838;2.402;2022-10-16T11:14:14;2.80;;;1.40;;
65853;SDS011;52627;48.838;2.402;2022-10-16T11:16:52;2.20;;;1.00;;
65853;SDS011;52627;48.838;2.402;2022-10-16T11:25:30;4.50;;;1.40;;
65853;SDS011;52627;48.838;2.402;2022-10-16T11:31:10;2.80;;;1.00;;
65853;SDS011;52627;48.838;2.402;2022-10-16T11:34:19;2.20;;;0.80;;
65853;SDS011;52627;48.838;2.402;2022-10-16T11:37:03;2.70;;;0.80;;
65853;SDS011;52627;48.838;2.402;2022-10-16T11:39:35;3.80;;;1.50;;
65853;SDS011;52627;48.838;2.402;2022-10-16T11:42:13;2.60;;;1.10;;
65853;SDS011;52627;48.838;2.402;2022-10-16T11:48:02;2.90;;;1.10;;
65853;SDS011;52627;48.838;2.402;2022-10-16T11:50:43;2.30;;;1.00;;
65853;SDS011;52627;48.838;2.402;2022-10-16T11:53:31;1.90;;;0.80;;
65853;SDS011;52627;48.838;2.402;2022-10-16T11:56:08;3.00;;;1.00;;
65853;SDS011;52627;48.838;2.402;2022-10-16T12:01:38;3.80;;;2.20;;
65853;SDS011;52627;48.838;2.402;2022-10-16T12:04:19;3.60;;;1.30;;
65853;SDS011;52627;48.838;2.402;2022-10-16T12:07:03;3.70;;;1.00;;
65853;SDS011;52627;48.838;2.402;2022-10-16T12:09:37;3.80;;;1.70;;
65853;SDS011;52627;48.838;2.402;2022-10-16T12:12:41;3.60;;;1.30;;
65853;SDS011;52627;48.838;2.402;2022-10-16T12:15:25;4.60;;;1.90;;
65853;SDS011;52627;48.838;2.402;2022-10-16T12:18:24;3.90;;;1.20;;
65853;SDS011;52627;48.838;2.402;2022-10-16T12:20:59;2.60;;;1.10;;
65853;SDS011;52627;48.838;2.402;2022-10-16T12:23:55;2.50;;;0.80;;
65853;SDS011;52627;48.838;2.402;2022-10-16T12:26:25;2.50;;;1.10;;
65853;SDS011;52627;48.838;2.402;2022-10-16T12:28:55;3.00;;;1.30;;
65853;SDS011;52627;48.838;2.402;2022-10-16T12:31:49;2.90;;;1.30;;
65853;SDS011;52627;48.838;2.402;2022-10-16T12:34:42;2.90;;;1.50;;
65853;SDS011;52627;48.838;2.402;2022-10-16T12:37:26;3.00;;;1.40;;
65853;SDS011;52627;48.838;2.402;2022-10-16T12:39:56;3.40;;;1.50;;
65853;SDS011;52627;48.838;2.402;2022-10-16T12:44:56;4.50;;;2.20;;
65853;SDS011;52627;48.838;2.402;2022-10-16T12:47:37;3.40;;;1.40;;
65853;SDS011;52627;48.838;2.402;2022-10-16T12:52:52;5.10;;;1.80;;
65853;SDS011;52627;48.838;2.402;2022-10-16T12:55:21;4.20;;;2.00;;
65853;SDS011;52627;48.838;2.402;2022-10-16T13:00:57;3.40;;;1.60;;
65853;SDS011;52627;48.838;2.402;2022-10-16T13:27:34;2.80;;;1.60;;
65853;SDS011;52627;48.838;2.402;2022-10-16T13:30:25;3.90;;;1.50;;
65853;SDS011;52627;48.838;2.402;2022-10-16T13:35:32;4.00;;;2.00;;
65853;SDS011;52627;48.838;2.402;2022-10-16T13:41:02;4.60;;;2.20;;
65853;SDS011;52627;48.838;2.402;2022-10-16T13:43:37;3.20;;;1.70;;
65853;SDS011;52627;48.838;2.402;2022-10-16T13:46:17;4.00;;;1.90;;
65853;SDS011;52627;48.838;2.402;2022-10-16T13:49:00;3.30;;;1.80;;
65853;SDS011;52627;48.838;2.402;2022-10-16T13:51:32;3.20;;;1.90;;
65853;SDS011;52627;48.838;2.402;2022-10-16T13:54:00;4.80;;;1.90;;
65853;SDS011;52627;48.838;2.402;2022-10-16T13:56:29;3.70;;;1.90;;
65853;SDS011;52627;48.838;2.402;2022-10-16T14:01:53;3.70;;;1.90;;
65853;SDS011;52627;48.838;2.402;2022-10-16T14:04:23;4.30;;;2.10;;
65853;SDS011;52627;48.838;2.402;2022-10-16T14:06:51;4.10;;;1.90;;
65853;SDS011;52627;48.838;2.402;2022-10-16T14:09:24;4.80;;;1.80;;
65853;SDS011;52627;48.838;2.402;2022-10-16T14:12:02;4.20;;;1.90;;
65853;SDS011;52627;48.838;2.402;2022-10-16T14:14:40;3.90;;;2.00;;
65853;SDS011;52627;48.838;2.402;2022-10-16T14:17:26;3.50;;;1.80;;
65853;SDS011;52627;48.838;2.402;2022-10-16T14:19:57;4.70;;;2.20;;
65853;SDS011;52627;48.838;2.402;2022-10-16T14:22:33;4.00;;;2.20;;
65853;SDS011;52627;48.838;2.402;2022-10-16T14:30:51;4.00;;;1.90;;
65853;SDS011;52627;48.838;2.402;2022-10-16T14:33:31;5.20;;;2.00;;
65853;SDS011;52627;48.838;2.402;2022-10-16T14:36:06;3.90;;;2.20;;
65853;SDS011;52627;48.838;2.402;2022-10-16T14:38:58;4.00;;;2.20;;
65853;SDS011;52627;48.838;2.402;2022-10-16T14:41:31;5.50;;;2.00;;
65853;SDS011;52627;48.838;2.402;2022-10-16T14:44:03;5.30;;;2.10;;
65853;SDS011;52627;48.838;2.402;2022-10-16T14:46:35;5.00;;;2.00;;
65853;SDS011;52627;48.838;2.402;2022-10-16T14:49:24;6.20;;;2.20;;
65853;SDS011;52627;48.838;2.402;2022-10-16T14:51:51;5.40;;;2.10;;
65853;SDS011;52627;48.838;2.402;2022-10-16T14:54:19;5.30;;;2.20;;
65853;SDS011;52627;48.838;2.402;2022-10-16T14:56:50;6.20;;;2.50;;
65853;SDS011;52627;48.838;2.402;2022-10-16T14:59:27;5.00;;;2.30;;
65853;SDS011;52627;48.838;2.402;2022-10-16T15:01:57;4.40;;;2.30;;
65853;SDS011;52627;48.838;2.402;2022-10-16T15:04:25;3.70;;;2.30;;
65853;SDS011;52627;48.838;2.402;2022-10-16T15:06:52;4.40;;;2.30;;
65853;SDS011;52627;48.838;2.402;2022-10-16T15:09:20;4.60;;;2.70;;
65853;SDS011;52627;48.838;2.402;2022-10-16T15:11:47;5.10;;;2.10;;
65853;SDS011;52627;48.838;2.402;2022-10-16T15:14:14;5.40;;;2.50;;
65853;SDS011;52627;48.838;2.402;2022-10-16T15:16:46;5.30;;;2.50;;
65853;SDS011;52627;48.838;2.402;2022-10-16T15:19:14;3.40;;;2.00;;
65853;SDS011;52627;48.838;2.402;2022-10-16T15:21:41;4.80;;;2.00;;
65853;SDS011;52627;48.838;2.402;2022-10-16T15:24:12;5.30;;;2.30;;
65853;SDS011;52627;48.838;2.402;2022-10-16T15:26:45;4.50;;;2.20;;
65853;SDS011;52627;48.838;2.402;2022-10-16T15:31:44;6.10;;;3.20;;
65853;SDS011;52627;48.838;2.402;2022-10-16T15:34:14;10.00;;;6.60;;
65853;SDS011;52627;48.838;2.402;2022-10-16T15:36:41;10.20;;;5.20;;
65853;SDS011;52627;48.838;2.402;2022-10-16T15:39:14;10.60;;;6.50;;
65853;SDS011;52627;48.838;2.402;2022-10-16T15:41:44;10.60;;;6.00;;
65853;SDS011;52627;48.838;2.402;2022-10-16T15:44:17;7.10;;;3.70;;
65853;SDS011;52627;48.838;2.402;2022-10-16T15:46:46;4.50;;;2.50;;
65853;SDS011;52627;48.838;2.402;2022-10-16T15:49:14;6.90;;;3.00;;
65853;SDS011;52627;48.838;2.402;2022-10-16T15:51:42;6.00;;;3.00;;
65853;SDS011;52627;48.838;2.402;2022-10-16T15:54:09;6.20;;;2.60;;
65853;SDS011;52627;48.838;2.402;2022-10-16T15:56:37;4.40;;;2.70;;
65853;SDS011;52627;48.838;2.402;2022-10-16T15:59:04;5.70;;;2.70;;
65853;SDS011;52627;48.838;2.402;2022-10-16T16:01:35;7.80;;;5.10;;
65853;SDS011;52627;48.838;2.402;2022-10-16T16:04:03;8.70;;;5.30;;
65853;SDS011;52627;48.838;2.402;2022-10-16T16:06:37;4.90;;;2.50;;
65853;SDS011;52627;48.838;2.402;2022-10-16T16:09:06;4.90;;;3.30;;
65853;SDS011;52627;48.838;2.402;2022-10-16T16:11:33;8.40;;;4.90;;
65853;SDS011;52627;48.838;2.402;2022-10-16T16:14:06;5.40;;;2.70;;
65853;SDS011;52627;48.838;2.402;2022-10-16T16:16:33;5.60;;;2.50;;
65853;SDS011;52627;48.838;2.402;2022-10-16T16:19:05;4.60;;;2.60;;
65853;SDS011;52627;48.838;2.402;2022-10-16T16:21:38;4.50;;;2.40;;
65853;SDS011;52627;48.838;2.402;2022-10-16T16:24:05;5.30;;;2.50;;
65853;SDS011;52627;48.838;2.402;2022-10-16T16:26:35;4.00;;;2.40;;
65853;SDS011;52627;48.838;2.402;2022-10-16T16:31:35;3.80;;;2.30;;
65853;SDS011;52627;48.838;2.402;2022-10-16T16:34:03;3.60;;;2.10;;
65853;SDS011;52627;48.838;2.402;2022-10-16T16:36:31;5.20;;;2.50;;
65853;SDS011;52627;48.838;2.402;2022-10-16T16:38:58;5.50;;;2.70;;
65853;SDS011;52627;48.838;2.402;2022-10-16T16:41:28;4.10;;;3.00;;
65853;SDS011;52627;48.838;2.402;2022-10-16T16:46:33;7.20;;;2.30;;
65853;SDS011;52627;48.838;2.402;2022-10-16T16:49:01;6.80;;;2.70;;
65853;SDS011;52627;48.838;2.402;2022-10-16T16:51:29;5.50;;;2.80;;
65853;SDS011;52627;48.838;2.402;2022-10-16T16:53:57;5.00;;;2.40;;
65853;SDS011;52627;48.838;2.402;2022-10-16T16:56:25;4.20;;;2.30;;
65853;SDS011;52627;48.838;2.402;2022-10-16T16:58:55;5.50;;;2.70;;
65853;SDS011;52627;48.838;2.402;2022-10-16T17:01:24;5.60;;;2.60;;
65853;SDS011;52627;48.838;2.402;2022-10-16T17:03:54;5.60;;;2.70;;
65853;SDS011;52627;48.838;2.402;2022-10-16T17:06:27;7.50;;;2.80;;
65853;SDS011;52627;48.838;2.402;2022-10-16T17:08:57;4.40;;;2.30;;
65853;SDS011;52627;48.838;2.402;2022-10-16T17:11:26;7.10;;;2.50;;
65853;SDS011;52627;48.838;2.402;2022-10-16T17:13:55;6.40;;;3.50;;
65853;SDS011;52627;48.838;2.402;2022-10-16T17:16:30;6.50;;;2.90;;
65853;SDS011;52627;48.838;2.402;2022-10-16T17:19:09;4.80;;;2.80;;
65853;SDS011;52627;48.838;2.402;2022-10-16T17:21:42;6.00;;;3.00;;
65853;SDS011;52627;48.838;2.402;2022-10-16T17:24:10;6.00;;;3.60;;